Weather History for KPHN - August, 2013

Change the Weather History Date:

Saturday, August 31, 2013

  Actual Average (KMTC) Record (KMTC)
Temperature  
Mean Temperature 68 °F -  
Max Temperature 75 °F 77 °F 94 °F (1953)
Min Temperature 60 °F 58 °F 48 °F (1986)
Cooling Degree Days 2    
Growing Degree Days 18 (Base 50)    
Moisture  
Dew Point 68 °F    
Average Humidity 94    
Maximum Humidity 100    
Minimum Humidity 78    
Precipitation  
Precipitation 0.00 in - - ()
Sea Level Pressure  
Sea Level Pressure 29.83 in    
Wind  
Wind Speed 3 mph (North)    
Max Wind Speed 9 mph    
Max Gust Speed -    
Visibility 8 miles    
Events      
Averages and records for this station are not official NWS values.
T = Trace of Precipitation, MM = Missing Value Source: NWS Daily Summary

Daily Weather History Graph

Daily Weather History Graph

Search for Another Location

Airport or City:

Trip Planner

Search our weather history database for the weather conditions in past years. The results will help you decide how hot, cold, wet, or windy it might be!

Date:

Astronomy

Aug. 31, 2013 Rise Set
Actual Time 6:53 AM EDT 8:06 PM EDT
Civil Twilight 6:24 AM EDT 8:35 PM EDT
Nautical Twilight 5:49 AM EDT 9:10 PM EDT
Astronomical Twilight 5:12 AM EDT 9:46 PM EDT
Moon 2:17 AM EDT (8/31) 5:07 PM EDT (8/31)
Length of Visible Light 14h 10m
Length of Day
13h 12m
Waning Crescent, 21% of the Moon is Illuminated
Aug 31
Waning Crescent
Sep 5
New
Sep 12
First Quarter
Sep 19
Full
Sep 26
Last Quarter

Hourly Weather History & Observations

Time (EDT) Temp. Dew Point Humidity Pressure Visibility Wind Dir Wind Speed Gust Speed Precip Events Conditions
12:16 AM 69.8 °F 69.8 °F 100% 29.79 in 7.0 mi Calm Calm - N/A   Mostly Cloudy
12:36 AM 69.8 °F 69.8 °F 100% 29.79 in 7.0 mi Calm Calm - N/A   Overcast
12:56 AM 69.8 °F 69.8 °F 100% 29.77 in 7.0 mi Calm Calm - N/A   Overcast
1:16 AM 69.8 °F 69.8 °F 100% 29.76 in 5.0 mi NNW 4.6 mph - N/A   Overcast
1:36 AM 71.6 °F 71.6 °F 100% 29.77 in 7.0 mi NNE 3.5 mph - N/A   Overcast
1:56 AM 71.6 °F 71.6 °F 100% 29.77 in 7.0 mi NNW 3.5 mph - N/A   Overcast
2:16 AM 71.6 °F 71.6 °F 100% 29.77 in 7.0 mi North 4.6 mph - N/A   Overcast
2:36 AM 71.6 °F 71.6 °F 100% 29.78 in 7.0 mi Calm Calm - N/A   Overcast
2:56 AM 71.6 °F 71.6 °F 100% 29.78 in 7.0 mi NNE 3.5 mph - N/A   Overcast
3:16 AM 71.6 °F 71.6 °F 100% 29.78 in 7.0 mi North 3.5 mph - N/A   Overcast
3:36 AM 71.6 °F 71.6 °F 100% 29.78 in 7.0 mi Calm Calm - N/A   Overcast
3:56 AM 69.8 °F 69.8 °F 100% 29.78 in 7.0 mi NNE 3.5 mph - N/A   Overcast
4:16 AM 69.8 °F 69.8 °F 100% 29.78 in 10.0 mi Calm Calm - N/A   Overcast
4:36 AM 69.8 °F 69.8 °F 100% 29.79 in 7.0 mi Calm Calm - N/A   Overcast
4:56 AM 69.8 °F 69.8 °F 100% 29.79 in 7.0 mi Calm Calm - N/A   Overcast
5:16 AM 69.8 °F 69.8 °F 100% 29.79 in 5.0 mi Calm Calm - N/A   Overcast
5:36 AM 69.8 °F 69.8 °F 100% 29.79 in 7.0 mi Calm Calm - N/A   Overcast
5:56 AM 69.8 °F 69.8 °F 100% 29.79 in 7.0 mi Calm Calm - N/A   Overcast
6:16 AM 69.8 °F 69.8 °F 100% 29.79 in 7.0 mi North 4.6 mph - N/A   Overcast
6:36 AM 68.0 °F 68.0 °F 100% 29.78 in 10.0 mi NNW 5.8 mph - N/A   Overcast
6:56 AM 68.0 °F 68.0 °F 100% 29.79 in 7.0 mi NW 4.6 mph - N/A   Overcast
7:16 AM 68.0 °F 68.0 °F 100% 29.80 in 7.0 mi NW 9.2 mph - N/A   Overcast
7:36 AM 68.0 °F 68.0 °F 100% 29.82 in 7.0 mi NW 4.6 mph - N/A   Overcast
7:56 AM 68.0 °F 68.0 °F 100% 29.82 in 7.0 mi NW 3.5 mph - N/A   Overcast
8:16 AM 68.0 °F 68.0 °F 100% 29.83 in 10.0 mi Calm Calm - N/A   Overcast
8:36 AM 68.0 °F 68.0 °F 100% 29.84 in 10.0 mi Calm Calm - N/A   Overcast
8:56 AM 69.8 °F 69.8 °F 100% 29.85 in 10.0 mi Calm Calm - N/A   Overcast
9:16 AM 69.8 °F 69.8 °F 100% 29.85 in 10.0 mi Calm Calm - N/A   Overcast
9:36 AM 69.8 °F 69.8 °F 100% 29.85 in 10.0 mi North 3.5 mph - N/A   Overcast
9:56 AM 71.6 °F 69.8 °F 94% 29.85 in 10.0 mi North 4.6 mph - N/A   Overcast
10:16 AM 71.6 °F 69.8 °F 94% 29.86 in 10.0 mi NNW 4.6 mph - N/A   Overcast
10:36 AM 71.6 °F 69.8 °F 94% 29.86 in 10.0 mi North 3.5 mph - N/A   Overcast
10:56 AM 73.4 °F 69.8 °F 88% 29.85 in 10.0 mi NE 9.2 mph - N/A   Overcast
11:16 AM 71.6 °F 68.0 °F 88% 29.86 in 10.0 mi NNE 5.8 mph - N/A   Overcast
11:36 AM 71.6 °F 68.0 °F 88% 29.86 in 10.0 mi NNE 6.9 mph - N/A   Overcast
11:56 AM 69.8 °F 68.0 °F 94% 29.85 in 10.0 mi NNE 6.9 mph - N/A   Overcast
12:16 PM 71.6 °F 68.0 °F 88% 29.85 in 10.0 mi NNE 3.5 mph - N/A   Overcast
12:36 PM 73.4 °F 68.0 °F 83% 29.84 in 10.0 mi NNE 6.9 mph - N/A   Overcast
12:56 PM 73.4 °F 68.0 °F 83% 29.84 in 10.0 mi NNE 6.9 mph - N/A   Overcast
1:16 PM 73.4 °F 68.0 °F 83% 29.84 in 10.0 mi NE 8.1 mph - N/A   Overcast
1:36 PM 73.4 °F 68.0 °F 83% 29.84 in 10.0 mi NNE 6.9 mph - N/A   Overcast
1:56 PM 73.4 °F 68.0 °F 83% 29.84 in 10.0 mi NNE 5.8 mph - N/A   Overcast
2:16 PM 73.4 °F 68.0 °F 83% 29.85 in 10.0 mi NNE 3.5 mph - N/A   Overcast
2:36 PM 75.2 °F 68.0 °F 78% 29.85 in 10.0 mi North 4.6 mph - N/A   Overcast
2:56 PM 73.4 °F 66.2 °F 78% 29.85 in 10.0 mi North 6.9 mph - N/A   Overcast
3:16 PM 73.4 °F 66.2 °F 78% 29.86 in 10.0 mi North 8.1 mph - N/A   Overcast
3:36 PM 73.4 °F 66.2 °F 78% 29.86 in 10.0 mi NNE 6.9 mph - N/A   Overcast
3:56 PM 71.6 °F 68.0 °F 88% 29.85 in 10.0 mi NNE 6.9 mph - N/A   Overcast
4:16 PM 73.4 °F 68.0 °F 83% 29.85 in 10.0 mi NE 9.2 mph - N/A   Overcast
4:36 PM 71.6 °F 68.0 °F 88% 29.85 in 10.0 mi NE 5.8 mph - N/A   Overcast
4:56 PM 71.6 °F 68.0 °F 88% 29.85 in 10.0 mi NNE 5.8 mph - N/A   Overcast
5:16 PM 71.6 °F 68.0 °F 88% 29.85 in 10.0 mi NNE 9.2 mph - N/A   Overcast
5:36 PM 71.6 °F 68.0 °F 88% 29.84 in 10.0 mi NNE 5.8 mph - N/A   Overcast
5:56 PM 71.6 °F 68.0 °F 88% 29.84 in 10.0 mi NNE 3.5 mph - N/A   Overcast
6:16 PM 69.8 °F 66.2 °F 88% 29.85 in 10.0 mi NNE 5.8 mph - N/A   Overcast
6:36 PM 69.8 °F 66.2 °F 88% 29.85 in 10.0 mi NNE 9.2 mph - N/A   Overcast
6:56 PM 69.8 °F 66.2 °F 88% 29.84 in 10.0 mi NNE 6.9 mph - N/A   Overcast
7:16 PM 69.8 °F 66.2 °F 88% 29.84 in 10.0 mi NNE 4.6 mph - N/A   Overcast
7:36 PM 69.8 °F 66.2 °F 88% 29.84 in 10.0 mi North 4.6 mph - N/A   Mostly Cloudy
7:56 PM 68.0 °F 66.2 °F 94% 29.84 in 10.0 mi NNE 3.5 mph - N/A   Overcast
8:16 PM 68.0 °F 66.2 °F 94% 29.84 in 10.0 mi NNE 5.8 mph - N/A   Mostly Cloudy
8:36 PM 66.2 °F 64.4 °F 94% 29.85 in 10.0 mi NNE 4.6 mph - N/A   Scattered Clouds
8:56 PM 66.2 °F 64.4 °F 94% 29.85 in 10.0 mi NNE 3.5 mph - N/A   Clear
9:16 PM 64.4 °F 64.4 °F 100% 29.86 in 10.0 mi Calm Calm - N/A   Scattered Clouds
9:36 PM 62.6 °F 62.6 °F 100% 29.87 in 4.0 mi Calm Calm - N/A   Mostly Cloudy
9:56 PM 62.6 °F 62.6 °F 100% 29.86 in 2.0 mi Calm Calm - N/A   Mostly Cloudy
10:16 PM 62.6 °F 62.6 °F 100% 29.87 in 4.0 mi Calm Calm - N/A   Scattered Clouds
10:36 PM 62.6 °F 62.6 °F 100% 29.86 in 0.8 mi Calm Calm - N/A   Mostly Cloudy
10:56 PM 62.6 °F 62.6 °F 100% 29.85 in 5.0 mi WNW 4.6 mph - N/A   Clear
11:16 PM 60.8 °F 60.8 °F 100% 29.85 in 2.0 mi North 3.5 mph - N/A   Scattered Clouds
11:36 PM 62.6 °F 62.6 °F 100% 29.86 in 5.0 mi Calm Calm - N/A   Clear
11:56 PM 60.8 °F 60.8 °F 100% 29.86 in 2.5 mi NNW 3.5 mph - N/A   Scattered Clouds